Time;durP1;ratioP1;P1;durP2;ratioP2;P2;SDS_P1;SDS_P2;PMS_P1;PMS_P2;Temp;Humidity;BMP_temperature;BMP_pressure;BME280_temperature;BME280_humidity;BME280_pressure;Samples;Min_cycle;Max_cycle;Signal;HPM_P1;HPM_P2
2020/12/11 00:00:43;;;;;;;4.25;1.45;;;23.00;46.10;;;;;;4158000;28;20040;-46
2020/12/11 00:02:46;;;;;;;2.47;1.42;;;23.00;46.10;;;;;;4151506;28;20050;-50
2020/12/11 00:04:48;;;;;;;4.40;1.45;;;23.10;46.10;;;;;;4153910;28;20045;-46
2020/12/11 00:06:50;;;;;;;3.05;1.40;;;23.10;46.10;;;;;;4158532;28;20060;-45
2020/12/11 00:08:52;;;;;;;3.53;1.50;;;23.10;46.20;;;;;;4156150;28;20022;-50
2020/12/11 00:10:54;;;;;;;2.63;1.23;;;23.10;46.20;;;;;;4154893;28;20037;-48
2020/12/11 00:12:57;;;;;;;4.10;1.60;;;23.10;46.10;;;;;;4159435;28;20028;-51
2020/12/11 00:15:03;;;;;;;5.22;1.85;;;23.10;46.10;;;;;;4150865;28;20475;-50
2020/12/11 00:17:05;;;;;;;3.80;1.55;;;23.10;46.00;;;;;;4158013;28;20040;-51
2020/12/11 00:19:08;;;;;;;3.47;1.65;;;23.10;46.10;;;;;;4152187;28;20045;-48
2020/12/11 00:21:10;;;;;;;4.05;1.30;;;23.10;46.10;;;;;;4156166;28;20021;-50
2020/12/11 00:23:12;;;;;;;5.00;1.95;;;23.10;46.10;;;;;;4157161;28;20115;-50
2020/12/11 00:25:14;;;;;;;3.80;1.65;;;23.20;46.10;;;;;;4151896;28;20324;-48
2020/12/11 00:27:16;;;;;;;2.75;1.40;;;23.20;46.00;;;;;;4154718;28;20388;-45
2020/12/11 00:29:18;;;;;;;5.25;1.88;;;23.20;46.00;;;;;;4157668;28;20103;-49
2020/12/11 00:31:24;;;;;;;3.00;1.30;;;23.20;46.00;;;;;;4155435;28;20040;-50
2020/12/11 00:33:27;;;;;;;4.80;1.60;;;23.30;46.00;;;;;;4148820;28;20048;-51
2020/12/11 00:35:29;;;;;;;3.22;1.65;;;23.30;45.90;;;;;;4155211;28;20029;-49
2020/12/11 00:37:31;;;;;;;3.42;1.45;;;23.30;45.80;;;;;;4154730;28;20038;-47
2020/12/11 00:39:33;;;;;;;5.70;1.35;;;23.30;46.20;;;;;;4155056;28;20041;-50
2020/12/11 00:41:40;;;;;;;2.97;1.63;;;23.30;46.00;;;;;;4157075;28;20431;-47
2020/12/11 00:43:42;;;;;;;2.70;1.35;;;23.30;46.00;;;;;;4154525;28;20099;-52
2020/12/11 00:45:44;;;;;;;4.05;1.50;;;23.30;46.00;;;;;;4149260;28;20038;-51
2020/12/11 00:47:46;;;;;;;4.35;2.00;;;23.30;45.90;;;;;;4158369;28;20024;-50
2020/12/11 00:49:48;;;;;;;2.42;1.38;;;23.30;45.90;;;;;;4150881;28;20026;-48
2020/12/11 00:51:55;;;;;;;3.72;1.52;;;23.30;46.00;;;;;;4161525;28;20343;-50
2020/12/11 00:53:57;;;;;;;3.20;1.60;;;23.30;45.90;;;;;;4152572;28;20033;-48
2020/12/11 00:55:59;;;;;;;2.38;1.17;;;23.40;45.90;;;;;;4154759;28;20063;-47
2020/12/11 00:58:01;;;;;;;3.75;1.58;;;23.40;45.90;;;;;;4156687;28;20393;-52
2020/12/11 01:00:06;;;;;;;3.42;1.55;;;23.40;45.90;;;;;;4157306;28;20037;-48
2020/12/11 01:02:08;;;;;;;4.95;1.33;;;23.40;45.80;;;;;;4150849;28;20104;-48
2020/12/11 01:04:10;;;;;;;3.88;1.55;;;23.50;45.90;;;;;;4156381;28;21416;-49
2020/12/11 01:06:12;;;;;;;2.70;1.20;;;23.50;45.90;;;;;;4159971;28;20123;-50
2020/12/11 01:08:14;;;;;;;3.15;1.30;;;23.40;46.50;;;;;;4157161;28;20060;-49
2020/12/11 01:10:16;;;;;;;3.38;1.25;;;23.40;45.90;;;;;;4154233;28;20106;-50
2020/12/11 01:12:18;;;;;;;2.83;1.20;;;23.40;45.90;;;;;;4151258;28;20045;-47
2020/12/11 01:14:21;;;;;;;3.30;1.30;;;23.40;45.90;;;;;;4157032;28;20393;-49
2020/12/11 01:16:23;;;;;;;3.25;1.15;;;23.40;45.90;;;;;;4148729;28;20056;-48
2020/12/11 01:18:25;;;;;;;3.63;1.10;;;23.40;45.90;;;;;;4158849;28;20049;-50
2020/12/11 01:20:27;;;;;;;3.08;1.30;;;23.40;45.90;;;;;;4153730;28;20489;-48
2020/12/11 01:22:29;;;;;;;3.10;1.27;;;23.40;46.00;;;;;;4150622;28;20060;-49
2020/12/11 01:24:34;;;;;;;2.88;1.20;;;23.40;46.00;;;;;;4155335;28;20119;-47
2020/12/11 01:26:36;;;;;;;2.10;1.08;;;23.40;46.00;;;;;;4156546;28;20037;-46
2020/12/11 01:28:38;;;;;;;3.03;1.48;;;23.40;46.00;;;;;;4160742;28;20079;-51
2020/12/11 01:30:40;;;;;;;2.67;1.42;;;23.40;46.10;;;;;;4156911;28;20036;-51
2020/12/11 01:32:42;;;;;;;3.72;1.55;;;23.40;46.10;;;;;;4159364;28;20029;-47
2020/12/11 01:34:44;;;;;;;3.35;1.50;;;23.40;46.10;;;;;;4154903;28;20052;-49
2020/12/11 01:36:46;;;;;;;4.07;1.42;;;23.40;46.10;;;;;;4155774;28;20029;-50
2020/12/11 01:38:49;;;;;;;3.07;1.30;;;23.40;46.10;;;;;;4156788;28;20106;-50
2020/12/11 01:40:51;;;;;;;3.92;1.35;;;23.40;46.00;;;;;;4151845;28;20404;-50
2020/12/11 01:42:53;;;;;;;3.30;1.40;;;23.40;46.10;;;;;;4153162;28;20411;-46
2020/12/11 01:44:56;;;;;;;3.63;1.27;;;23.40;46.10;;;;;;4160271;28;20119;-54
2020/12/11 01:46:58;;;;;;;3.15;1.25;;;23.40;46.10;;;;;;4155782;28;20304;-50
2020/12/11 01:49:01;;;;;;;3.57;1.20;;;23.40;46.00;;;;;;4155841;28;20448;-47
2020/12/11 01:51:03;;;;;;;4.00;1.40;;;23.50;46.00;;;;;;4155412;28;20362;-49
2020/12/11 01:53:05;;;;;;;2.00;1.08;;;23.50;46.00;;;;;;4160441;28;20115;-46
2020/12/11 01:55:08;;;;;;;4.28;1.50;;;23.50;45.90;;;;;;4157569;28;20088;-49
2020/12/11 01:57:39;;;;;;;2.45;1.20;;;23.60;45.90;;;;;;4154149;28;20144;-47
2020/12/11 01:59:43;;;;;;;3.03;1.45;;;23.60;45.90;;;;;;4161290;28;20029;-49
2020/12/11 02:01:47;;;;;;;;;;;23.70;45.90;;;;;;4150573;28;20053;-48
2020/12/11 02:03:48;;;;;;;;;;;23.70;45.80;;;;;;4158850;28;20415;-49
2020/12/11 02:05:50;;;;;;;3.38;1.20;;;23.70;45.80;;;;;;4156310;28;20291;-47
2020/12/11 02:07:52;;;;;;;3.88;1.40;;;23.70;45.70;;;;;;4156314;28;20065;-51
2020/12/11 02:09:54;;;;;;;2.13;1.35;;;23.70;45.70;;;;;;4156428;28;20045;-50
2020/12/11 02:11:57;;;;;;;5.18;1.75;;;23.70;45.70;;;;;;4156727;28;20044;-55
2020/12/11 02:13:59;;;;;;;3.15;1.65;;;23.70;45.70;;;;;;4161296;28;20036;-49
2020/12/11 02:16:01;;;;;;;1.70;0.98;;;23.70;45.70;;;;;;4151921;28;20619;-46
2020/12/11 02:18:04;;;;;;;2.28;1.17;;;23.80;45.70;;;;;;4153789;28;20030;-52
2020/12/11 02:20:06;;;;;;;;;;;23.80;45.70;;;;;;4156647;28;20572;-46
2020/12/11 02:22:08;;;;;;;3.83;1.67;;;23.80;45.70;;;;;;4153906;28;20409;-46
2020/12/11 02:24:10;;;;;;;3.38;1.38;;;23.80;45.60;;;;;;4153246;28;20063;-47
2020/12/11 02:26:14;;;;;;;1.95;1.00;;;23.80;45.70;;;;;;4152459;28;20021;-47
2020/12/11 02:28:16;;;;;;;3.30;1.20;;;23.80;45.70;;;;;;4156748;28;20585;-53
2020/12/11 02:30:18;;;;;;;2.00;1.20;;;23.90;45.70;;;;;;4158570;28;20743;-46
2020/12/11 02:32:21;;;;;;;2.63;1.70;;;23.90;45.70;;;;;;4152669;28;20044;-47
2020/12/11 02:34:24;;;;;;;2.92;1.38;;;23.90;45.60;;;;;;4157515;28;20031;-52
2020/12/11 02:36:26;;;;;;;4.40;1.27;;;23.90;45.60;;;;;;4152060;28;20046;-47
2020/12/11 02:38:28;;;;;;;2.30;1.20;;;23.90;45.60;;;;;;4152833;28;20426;-48
2020/12/11 02:40:30;;;;;;;3.40;1.60;;;23.90;45.60;;;;;;4157704;28;20128;-48
2020/12/11 02:42:32;;;;;;;3.92;1.80;;;23.90;45.60;;;;;;4156098;28;20143;-50
2020/12/11 02:44:35;;;;;;;2.85;1.40;;;23.90;45.60;;;;;;4155669;28;20042;-52
2020/12/11 02:46:37;;;;;;;2.85;1.15;;;23.90;45.50;;;;;;4154200;28;20044;-51
2020/12/11 02:48:39;;;;;;;3.60;1.30;;;24.00;45.60;;;;;;4159292;28;20092;-52
2020/12/11 02:50:41;;;;;;;2.38;1.10;;;24.00;45.60;;;;;;4157048;28;20033;-48
2020/12/11 02:52:44;;;;;;;1.90;1.05;;;24.00;45.60;;;;;;4158279;28;20076;-48
2020/12/11 02:54:47;;;;;;;2.20;1.10;;;24.00;45.50;;;;;;4150920;28;20073;-47
2020/12/11 02:56:49;;;;;;;2.75;1.10;;;24.00;45.50;;;;;;4155352;28;20036;-49
2020/12/11 02:58:51;;;;;;;1.52;0.82;;;24.00;45.50;;;;;;4152134;28;20724;-48
2020/12/11 03:00:53;;;;;;;2.40;1.20;;;24.00;45.40;;;;;;4159096;28;20053;-47
2020/12/11 03:02:55;;;;;;;2.05;1.20;;;24.00;45.50;;;;;;4154549;28;20139;-48
2020/12/11 03:04:57;;;;;;;3.22;1.55;;;24.10;45.50;;;;;;4153751;28;20364;-46
2020/12/11 03:06:59;;;;;;;1.83;1.13;;;24.10;45.40;;;;;;4153477;28;20055;-51
2020/12/11 03:09:02;;;;;;;3.83;1.35;;;24.10;45.50;;;;;;4158847;28;20108;-51
2020/12/11 03:11:04;;;;;;;3.72;1.20;;;24.10;45.50;;;;;;4149761;28;20053;-50
2020/12/11 03:13:06;;;;;;;2.15;1.10;;;24.10;45.50;;;;;;4156755;28;20029;-46
2020/12/11 03:15:08;;;;;;;3.80;1.52;;;24.10;45.50;;;;;;4156468;28;20029;-50
2020/12/11 03:17:10;;;;;;;3.72;1.27;;;24.10;45.40;;;;;;4159061;28;20490;-51
2020/12/11 03:19:14;;;;;;;4.45;1.30;;;24.10;45.50;;;;;;4150120;28;20124;-49
2020/12/11 03:21:16;;;;;;;3.60;1.40;;;24.10;45.50;;;;;;4154833;28;20164;-51
2020/12/11 03:23:18;;;;;;;3.78;1.23;;;24.10;45.50;;;;;;4149051;28;20053;-47
2020/12/11 03:25:21;;;;;;;3.47;1.15;;;24.10;45.50;;;;;;4155539;28;20099;-48
2020/12/11 03:27:23;;;;;;;3.72;1.38;;;24.10;45.50;;;;;;4153912;28;20116;-51
2020/12/11 03:29:25;;;;;;;4.30;1.40;;;24.10;45.50;;;;;;4158497;28;20037;-45
2020/12/11 03:31:27;;;;;;;2.55;0.95;;;24.10;45.50;;;;;;4157081;28;20450;-47
2020/12/11 03:33:29;;;;;;;3.07;1.47;;;24.10;45.50;;;;;;4152362;28;20045;-49
2020/12/11 03:35:32;;;;;;;5.22;1.92;;;24.10;45.50;;;;;;4156953;28;20497;-49
2020/12/11 03:37:34;;;;;;;3.17;1.40;;;24.10;45.50;;;;;;4155978;28;20033;-50
2020/12/11 03:39:36;;;;;;;3.60;1.17;;;24.10;45.50;;;;;;4154800;28;20476;-49
2020/12/11 03:41:38;;;;;;;2.78;1.30;;;24.10;45.40;;;;;;4151151;28;20041;-48
2020/12/11 03:43:40;;;;;;;2.55;1.38;;;24.10;45.50;;;;;;4153376;28;20272;-51
2020/12/11 03:45:42;;;;;;;2.85;1.15;;;24.20;45.50;;;;;;4152893;28;20045;-45
2020/12/11 03:47:44;;;;;;;3.45;1.40;;;24.20;45.50;;;;;;4153832;28;20033;-49
2020/12/11 03:49:46;;;;;;;3.38;1.33;;;24.20;45.50;;;;;;4152131;28;20056;-48
2020/12/11 03:51:52;;;;;;;3.88;1.40;;;24.20;45.40;;;;;;4156031;28;20041;-48
2020/12/11 03:53:54;;;;;;;2.92;1.23;;;24.20;45.30;;;;;;4150055;28;20077;-49
2020/12/11 03:55:57;;;;;;;3.55;1.70;;;24.20;45.30;;;;;;4147872;28;20128;-48
2020/12/11 03:57:59;;;;;;;3.80;1.50;;;24.20;45.30;;;;;;4147328;28;20068;-46
2020/12/11 04:00:01;;;;;;;3.53;1.40;;;24.20;45.30;;;;;;4147979;28;20025;-49
2020/12/11 04:02:04;;;;;;;4.57;1.48;;;24.20;45.30;;;;;;4151432;28;20045;-51
2020/12/11 04:04:07;;;;;;;5.00;1.60;;;24.30;45.30;;;;;;4155422;28;20041;-49
2020/12/11 04:06:09;;;;;;;;;;;24.30;45.30;;;;;;4151490;28;20029;-49
2020/12/11 04:08:11;;;;;;;3.30;1.30;;;24.30;45.30;;;;;;4162001;28;19917;-49
2020/12/11 04:10:14;;;;;;;5.15;1.67;;;24.30;45.20;;;;;;4151406;28;20037;-47
2020/12/11 04:12:16;;;;;;;4.72;1.77;;;24.30;45.30;;;;;;4154990;28;20456;-48
2020/12/11 04:14:18;;;;;;;2.53;1.02;;;24.30;45.30;;;;;;4156118;28;20037;-46
2020/12/11 04:16:20;;;;;;;4.32;1.70;;;24.40;45.30;;;;;;4147645;28;20042;-49
2020/12/11 04:18:22;;;;;;;4.00;1.50;;;24.40;45.20;;;;;;4157553;28;20041;-49
2020/12/11 04:20:25;;;;;;;3.30;1.42;;;24.40;45.20;;;;;;4155126;28;20479;-52
2020/12/11 04:22:27;;;;;;;4.55;1.58;;;24.40;45.10;;;;;;4168640;28;20045;-49
2020/12/11 04:24:29;;;;;;;6.50;1.27;;;24.50;45.20;;;;;;4159424;28;20042;-51
2020/12/11 04:26:31;;;;;;;4.53;1.63;;;24.50;45.10;;;;;;4151713;28;20125;-50
2020/12/11 04:28:33;;;;;;;2.95;1.15;;;24.60;45.10;;;;;;4154241;28;20037;-48
2020/12/11 04:30:35;;;;;;;5.55;1.38;;;24.60;45.00;;;;;;4161212;28;20048;-50
2020/12/11 04:32:37;;;;;;;5.25;1.50;;;24.60;45.00;;;;;;4145860;28;20087;-45
2020/12/11 04:34:40;;;;;;;4.85;1.60;;;24.60;44.90;;;;;;4156878;28;20052;-48
2020/12/11 04:36:42;;;;;;;3.55;1.65;;;24.60;44.90;;;;;;4145518;28;20072;-51
2020/12/11 04:38:46;;;;;;;6.43;2.35;;;24.60;44.80;;;;;;4161918;28;20064;-50
2020/12/11 04:40:54;;;;;;;7.40;1.80;;;24.70;44.70;;;;;;4151263;28;20040;-49
2020/12/11 04:42:56;;;;;;;4.72;1.58;;;24.70;44.70;;;;;;4150310;28;20077;-50
2020/12/11 04:44:58;;;;;;;3.75;1.80;;;24.70;44.70;;;;;;4150731;28;20495;-48
2020/12/11 04:47:06;;;;;;;4.40;1.35;;;24.80;44.70;;;;;;4152429;28;20052;-50
2020/12/11 04:49:09;;;;;;;3.80;1.30;;;24.80;44.60;;;;;;4152647;28;20037;-50
2020/12/11 04:51:11;;;;;;;5.38;1.70;;;24.90;45.00;;;;;;4152461;28;20048;-48
2020/12/11 04:53:17;;;;;;;3.65;1.67;;;24.90;44.50;;;;;;4157416;28;20038;-50
2020/12/11 04:55:20;;;;;;;3.47;1.60;;;25.00;44.50;;;;;;4151415;28;20033;-48
2020/12/11 04:57:25;;;;;;;;;;;25.00;44.50;;;;;;4153064;28;20038;-53
2020/12/11 04:59:27;;;;;;;5.53;1.40;;;25.00;44.40;;;;;;4150766;28;20362;-48
2020/12/11 05:01:31;;;;;;;5.40;1.80;;;25.00;44.40;;;;;;4151124;28;20066;-48
2020/12/11 05:03:35;;;;;;;5.90;1.67;;;25.00;44.40;;;;;;4152581;28;20041;-47
2020/12/11 05:05:37;;;;;;;3.63;1.27;;;25.10;44.30;;;;;;4149832;28;20022;-46
2020/12/11 05:07:39;;;;;;;5.00;1.80;;;25.10;44.30;;;;;;4148099;28;20375;-50
2020/12/11 05:09:41;;;;;;;3.47;1.43;;;25.10;44.20;;;;;;4148369;28;20667;-51
2020/12/11 05:11:45;;;;;;;5.57;1.58;;;25.10;44.20;;;;;;4148734;28;20694;-45
2020/12/11 05:13:47;;;;;;;4.00;1.35;;;25.20;44.30;;;;;;4157126;28;20494;-48
2020/12/11 05:16:15;;;;;;;3.75;1.23;;;25.20;44.20;;;;;;4157127;28;20114;-52
2020/12/11 05:18:22;;;;;;;6.15;1.70;;;25.20;44.80;;;;;;4150208;28;20033;-47
2020/12/11 05:20:27;;;;;;;4.35;1.65;;;25.20;44.10;;;;;;4150733;28;20442;-46
2020/12/11 05:22:34;;;;;;;3.20;1.27;;;25.20;44.10;;;;;;4156586;28;20057;-50
2020/12/11 05:24:45;;;;;;;4.15;1.65;;;25.20;44.20;;;;;;4152009;28;20095;-47
2020/12/11 05:26:47;;;;;;;5.10;1.67;;;25.10;44.10;;;;;;4150185;28;20117;-48
2020/12/11 05:28:50;;;;;;;4.55;1.40;;;25.10;44.10;;;;;;4157299;28;20063;-49
2020/12/11 05:31:04;;;;;;;;;;;25.10;44.10;;;;;;4150107;28;20135;-48
2020/12/11 05:33:06;;;;;;;;;;;25.10;44.20;;;;;;4144673;28;20420;-50
2020/12/11 05:35:15;;;;;;;3.80;2.00;;;25.10;44.20;;;;;;4152933;28;19925;-50
2020/12/11 05:37:17;;;;;;;5.10;2.05;;;25.10;44.50;;;;;;4146465;28;20419;-46
2020/12/11 05:39:32;;;;;;;6.18;2.20;;;25.10;44.50;;;;;;4150993;28;20121;-54
2020/12/11 05:41:39;;;;;;;3.95;2.00;;;25.10;44.60;;;;;;4147809;28;20108;-50
2020/12/11 05:43:41;;;;;;;5.50;1.85;;;25.10;44.60;;;;;;4154724;28;20091;-45
2020/12/11 05:45:52;;;;;;;5.93;2.28;;;25.10;44.60;;;;;;4147771;28;20034;-49
2020/12/11 05:47:59;;;;;;;3.13;2.03;;;25.10;44.70;;;;;;4154877;28;20482;-51
2020/12/11 05:50:09;;;;;;;4.18;1.95;;;25.10;44.70;;;;;;4155929;28;20084;-48
2020/12/11 05:52:23;;;;;;;4.28;2.00;;;25.10;44.80;;;;;;4153475;28;20037;-52
2020/12/11 05:54:24;;;;;;;;;;;25.10;44.90;;;;;;4147888;28;20034;-50
2020/12/11 05:56:27;;;;;;;5.68;1.90;;;25.10;44.90;;;;;;4146513;28;19913;-47
2020/12/11 05:58:32;;;;;;;6.45;1.95;;;25.10;44.90;;;;;;4155948;28;20037;-51
2020/12/11 06:00:34;;;;;;;4.18;1.90;;;25.10;44.80;;;;;;4151664;28;20399;-48
2020/12/11 06:02:39;;;;;;;6.53;1.95;;;25.10;44.90;;;;;;4158299;28;20270;-48
2020/12/11 06:04:41;;;;;;;5.70;2.17;;;25.10;44.90;;;;;;4151856;28;20124;-49
2020/12/11 06:06:46;;;;;;;4.13;2.78;;;25.10;44.90;;;;;;4148806;28;20045;-49
2020/12/11 06:08:53;;;;;;;6.85;3.58;;;25.10;44.90;;;;;;4149199;28;20057;-49
2020/12/11 06:10:58;;;;;;;6.50;3.65;;;25.10;44.90;;;;;;4154458;28;20040;-45
2020/12/11 06:13:04;;;;;;;5.85;3.58;;;25.20;44.90;;;;;;4151013;28;20033;-52
2020/12/11 06:15:21;;;;;;;6.30;3.90;;;25.20;44.80;;;;;;4158002;28;20469;-46
2020/12/11 06:17:25;;;;;;;9.45;4.57;;;25.20;44.80;;;;;;4161384;28;20077;-50
2020/12/11 06:19:28;;;;;;;5.75;4.13;;;25.30;44.90;;;;;;4157245;28;20498;-49
2020/12/11 06:21:31;;;;;;;6.65;4.55;;;25.30;44.90;;;;;;4156088;28;20433;-45
2020/12/11 06:23:33;;;;;;;7.40;4.50;;;25.30;44.90;;;;;;4153619;28;20143;-47
2020/12/11 06:25:35;;;;;;;8.02;4.22;;;25.40;44.90;;;;;;4149733;28;20036;-48
2020/12/11 06:27:38;;;;;;;9.70;4.95;;;25.50;44.80;;;;;;4151678;28;20037;-46
2020/12/11 06:29:40;;;;;;;8.05;5.00;;;25.50;44.80;;;;;;4158729;28;20493;-45
2020/12/11 06:31:48;;;;;;;6.33;4.80;;;25.40;44.80;;;;;;4153464;28;20928;-46
2020/12/11 06:33:53;;;;;;;9.70;6.20;;;25.40;44.90;;;;;;4154375;28;20755;-48
2020/12/11 06:36:00;;;;;;;9.60;7.50;;;25.40;45.00;;;;;;4156635;28;20025;-48
2020/12/11 06:38:02;;;;;;;13.27;7.05;;;25.40;45.00;;;;;;4152037;28;20053;-46
2020/12/11 06:40:04;;;;;;;8.20;6.13;;;25.30;45.00;;;;;;4155527;28;20056;-46
2020/12/11 06:42:07;;;;;;;7.97;5.68;;;25.30;45.00;;;;;;4154972;28;20069;-46
2020/12/11 06:44:08;;;;;;;;;;;25.30;45.00;;;;;;4166827;28;20586;-44
2020/12/11 06:46:22;;;;;;;9.18;5.13;;;25.30;45.00;;;;;;4158137;28;19913;-45
2020/12/11 06:48:24;;;;;;;10.60;5.35;;;25.30;44.90;;;;;;4166009;28;20037;-45
2020/12/11 06:50:30;;;;;;;7.47;4.47;;;25.40;44.80;;;;;;4167528;28;20427;-45
2020/12/11 06:52:35;;;;;;;8.82;4.30;;;25.40;44.70;;;;;;4171355;28;20454;-48
2020/12/11 06:54:37;;;;;;;9.00;4.57;;;25.50;44.60;;;;;;4152913;28;20554;-51
2020/12/11 06:56:44;;;;;;;8.77;4.43;;;25.50;44.60;;;;;;4157415;28;20506;-47
2020/12/11 06:58:46;;;;;;;8.77;4.00;;;25.50;44.40;;;;;;4156612;28;20103;-45
2020/12/11 07:00:53;;;;;;;6.38;4.03;;;25.50;44.30;;;;;;4150623;28;20061;-46
2020/12/11 07:03:15;;;;;;;6.10;3.13;;;25.60;44.20;;;;;;4155033;28;20041;-48
2020/12/11 07:05:17;;;;;;;8.13;3.33;;;25.60;44.00;;;;;;4150894;28;20444;-48
2020/12/11 07:07:21;;;;;;;5.28;2.75;;;25.70;44.00;;;;;;4154521;28;20049;-47
2020/12/11 07:09:23;;;;;;;7.30;2.88;;;25.70;44.00;;;;;;4152999;28;20144;-48
2020/12/11 07:11:25;;;;;;;7.53;2.97;;;25.70;43.90;;;;;;4157621;28;20692;-47
2020/12/11 07:13:27;;;;;;;5.55;2.83;;;25.70;44.00;;;;;;4151831;28;20076;-49
2020/12/11 07:15:29;;;;;;;5.85;3.00;;;25.70;44.00;;;;;;4156866;28;20041;-50
2020/12/11 07:17:31;;;;;;;4.03;2.70;;;25.80;44.10;;;;;;4151446;28;20064;-49
2020/12/11 07:19:35;;;;;;;4.88;2.45;;;25.90;44.10;;;;;;4153896;28;20072;-45
2020/12/11 07:21:40;;;;;;;7.30;2.53;;;25.80;44.10;;;;;;4159274;28;20124;-50
2020/12/11 07:23:42;;;;;;;6.75;2.40;;;25.90;44.20;;;;;;4158894;28;20121;-47
2020/12/11 07:25:48;;;;;;;6.68;2.40;;;25.80;44.10;;;;;;4154594;28;20441;-46
2020/12/11 07:28:03;;;;;;;5.68;2.50;;;25.80;44.10;;;;;;4141447;28;20061;-52
2020/12/11 07:30:05;;;;;;;7.20;2.45;;;25.90;44.20;;;;;;4141816;28;20491;-52
2020/12/11 07:32:07;;;;;;;4.65;2.40;;;25.80;44.30;;;;;;4149939;28;20473;-50
2020/12/11 07:34:12;;;;;;;4.20;2.20;;;25.80;44.20;;;;;;4151859;28;20036;-49
2020/12/11 07:36:15;;;;;;;3.70;1.90;;;25.80;44.30;;;;;;4152578;28;20121;-52
2020/12/11 07:38:27;;;;;;;6.65;2.40;;;25.80;44.20;;;;;;4155821;28;20750;-50
2020/12/11 07:40:30;;;;;;;5.20;2.40;;;25.90;44.30;;;;;;4151644;28;20045;-51
2020/12/11 07:42:33;;;;;;;5.47;2.45;;;25.80;44.30;;;;;;4148717;28;20416;-47
2020/12/11 07:44:39;;;;;;;4.47;2.00;;;25.80;44.30;;;;;;4155417;28;20538;-50
2020/12/11 07:46:43;;;;;;;6.18;2.55;;;25.80;44.30;;;;;;4149876;28;20080;-49
2020/12/11 07:48:52;;;;;;;4.00;1.90;;;25.80;44.30;;;;;;4152143;28;20045;-45
2020/12/11 07:51:01;;;;;;;5.53;2.08;;;25.80;45.00;;;;;;4156231;28;20030;-46
2020/12/11 07:53:10;;;;;;;5.25;2.03;;;25.80;44.30;;;;;;4152399;28;20336;-44
2020/12/11 07:55:12;;;;;;;8.20;2.10;;;25.70;44.20;;;;;;4149649;28;20538;-46
2020/12/11 07:57:16;;;;;;;3.78;1.70;;;25.70;44.20;;;;;;4155503;28;20424;-48
2020/12/11 07:59:18;;;;;;;3.38;1.70;;;25.70;44.30;;;;;;4152529;28;20220;-47
2020/12/11 08:01:20;;;;;;;5.22;1.70;;;25.60;44.20;;;;;;4153045;28;20078;-50
2020/12/11 08:03:27;;;;;;;6.72;1.98;;;25.70;44.40;;;;;;4150620;28;20177;-50
2020/12/11 08:05:29;;;;;;;4.13;1.52;;;25.60;44.20;;;;;;4149458;28;20017;-51
2020/12/11 08:07:32;;;;;;;3.67;1.60;;;25.60;44.40;;;;;;4150405;28;20041;-51
2020/12/11 08:09:35;;;;;;;5.22;1.48;;;25.60;44.40;;;;;;4148671;28;20030;-45
2020/12/11 08:11:38;;;;;;;3.72;1.75;;;25.50;44.30;;;;;;4150144;28;20069;-49
2020/12/11 08:13:59;;;;;;;5.32;1.90;;;25.50;44.40;;;;;;4152337;28;20472;-51
2020/12/11 08:16:02;;;;;;;4.88;1.60;;;25.50;44.40;;;;;;4148025;28;20038;-51
2020/12/11 08:18:30;;;;;;;3.92;1.45;;;25.40;44.30;;;;;;4153041;28;20035;-50
2020/12/11 08:20:49;;;;;;;3.65;1.67;;;25.40;44.30;;;;;;4144609;28;20033;-46
2020/12/11 08:22:51;;;;;;;5.15;1.80;;;25.40;44.40;;;;;;4144932;28;20573;-49
2020/12/11 08:24:54;;;;;;;3.33;1.50;;;25.30;44.30;;;;;;4142907;28;20034;-49
2020/12/11 08:26:56;;;;;;;6.20;1.70;;;25.30;44.40;;;;;;4145243;28;20033;-48
2020/12/11 08:29:06;;;;;;;7.03;2.13;;;25.30;44.40;;;;;;4148585;28;20040;-49
2020/12/11 08:31:24;;;;;;;6.28;2.33;;;25.30;44.40;;;;;;4151976;28;20037;-47
2020/12/11 08:33:26;;;;;;;4.85;2.15;;;25.30;44.40;;;;;;4148080;28;20034;-49
2020/12/11 08:35:29;;;;;;;3.92;1.63;;;25.20;44.40;;;;;;4145829;28;20460;-50
2020/12/11 08:37:31;;;;;;;3.55;1.98;;;25.20;44.40;;;;;;4145302;28;20041;-53
2020/12/11 08:39:33;;;;;;;4.35;1.77;;;25.20;45.20;;;;;;4145887;28;20395;-48
2020/12/11 08:41:44;;;;;;;4.47;1.60;;;25.20;44.60;;;;;;4145797;28;20757;-51
2020/12/11 08:43:47;;;;;;;4.97;2.00;;;25.20;44.70;;;;;;4148351;28;20088;-52
2020/12/11 08:50:40;;;;;;;6.03;2.08;;;25.10;44.70;;;;;;4150720;28;20047;-48
2020/12/11 08:52:42;;;;;;;7.45;2.13;;;25.10;44.70;;;;;;4147405;28;20682;-50
2020/12/11 08:54:46;;;;;;;7.65;2.20;;;25.00;44.70;;;;;;4150055;28;20115;-47
2020/12/11 08:56:49;;;;;;;6.38;2.28;;;25.00;44.70;;;;;;4148575;28;20099;-51
2020/12/11 08:58:51;;;;;;;6.70;2.70;;;25.00;44.80;;;;;;4149514;28;20082;-52
2020/12/11 09:00:53;;;;;;;4.13;1.75;;;25.00;44.80;;;;;;4144742;28;20319;-49
2020/12/11 09:02:55;;;;;;;5.03;2.30;;;25.00;44.90;;;;;;4151529;28;20119;-47
2020/12/11 09:04:58;;;;;;;6.28;2.42;;;25.00;44.90;;;;;;4145462;28;20415;-47
2020/12/11 09:07:00;;;;;;;8.10;2.83;;;25.00;44.90;;;;;;4140635;28;20071;-52
2020/12/11 09:09:03;;;;;;;6.68;2.38;;;25.00;44.90;;;;;;4148464;28;20029;-48
2020/12/11 09:11:05;;;;;;;5.88;2.10;;;24.90;44.90;;;;;;4150186;28;20037;-49
2020/12/11 09:13:07;;;;;;;7.05;2.38;;;25.00;45.00;;;;;;4150182;28;20497;-50
2020/12/11 09:15:10;;;;;;;8.80;2.30;;;24.90;45.00;;;;;;4146717;28;20123;-46
2020/12/11 09:17:12;;;;;;;7.83;2.70;;;24.90;45.10;;;;;;4148841;28;20037;-49
2020/12/11 09:19:15;;;;;;;5.20;2.25;;;24.90;45.10;;;;;;4147599;28;20041;-47
2020/12/11 09:21:17;;;;;;;5.50;2.50;;;24.90;45.10;;;;;;4146207;28;20037;-47
2020/12/11 09:23:19;;;;;;;6.60;2.25;;;24.90;45.10;;;;;;4148487;28;20045;-48
2020/12/11 09:25:21;;;;;;;5.25;2.78;;;24.90;45.20;;;;;;4149640;28;20065;-51
2020/12/11 09:27:23;;;;;;;6.45;2.50;;;24.80;45.20;;;;;;4144136;28;20333;-46
2020/12/11 09:29:31;;;;;;;6.65;2.17;;;24.80;45.20;;;;;;4150981;28;20041;-46
2020/12/11 09:31:34;;;;;;;4.88;2.25;;;24.80;45.20;;;;;;4142891;28;20461;-47
2020/12/11 09:33:43;;;;;;;5.20;2.25;;;24.80;45.20;;;;;;4147472;28;20044;-50
2020/12/11 09:35:47;;;;;;;7.97;2.63;;;24.80;45.20;;;;;;4148880;28;20076;-51
2020/12/11 09:37:52;;;;;;;6.50;2.58;;;24.80;45.30;;;;;;4142697;28;20068;-49
2020/12/11 09:39:54;;;;;;;6.15;2.15;;;24.80;45.30;;;;;;4150661;28;20037;-47
2020/12/11 09:42:27;;;;;;;5.88;2.28;;;24.80;45.30;;;;;;4145093;28;20022;-49
2020/12/11 09:44:56;;;;;;;6.15;2.30;;;24.80;45.40;;;;;;4147183;28;20045;-50
2020/12/11 09:49:21;;;;;;;4.45;2.10;;;24.80;45.50;;;;;;4153804;28;20048;-47
2020/12/11 09:55:56;;;;;;;6.47;2.33;;;24.70;45.50;;;;;;4149158;28;21316;-52
2020/12/11 09:57:58;;;;;;;5.88;2.38;;;24.70;45.60;;;;;;4154367;28;20056;-50
2020/12/11 10:00:02;;;;;;;5.43;2.00;;;24.70;45.60;;;;;;4148630;28;20381;-51
2020/12/11 10:04:07;;;;;;;7.72;2.22;;;24.70;45.70;;;;;;4149979;28;20425;-50
2020/12/11 10:06:09;;;;;;;3.85;1.80;;;24.60;45.70;;;;;;4144555;28;20174;-50
2020/12/11 10:08:11;;;;;;;4.68;1.80;;;24.60;45.70;;;;;;4154955;28;20032;-47
2020/12/11 10:10:13;;;;;;;4.63;2.08;;;24.60;45.80;;;;;;4149583;28;20034;-47
2020/12/11 10:12:17;;;;;;;5.22;2.10;;;24.60;45.80;;;;;;4146678;28;20043;-49
2020/12/11 10:14:34;;;;;;;3.90;1.70;;;24.60;45.80;;;;;;4154527;28;20037;-47
2020/12/11 10:16:36;;;;;;;5.90;2.30;;;24.60;45.80;;;;;;4148108;28;20033;-48
2020/12/11 10:18:39;;;;;;;5.93;2.33;;;24.60;45.80;;;;;;4154247;28;20037;-49
2020/12/11 10:20:41;;;;;;;5.93;1.73;;;24.60;45.90;;;;;;4145600;28;20030;-48
2020/12/11 10:22:43;;;;;;;6.53;1.90;;;24.60;45.90;;;;;;4150193;28;20605;-44
2020/12/11 10:24:46;;;;;;;7.18;2.13;;;24.60;46.00;;;;;;4151117;28;20038;-48
2020/12/11 10:26:48;;;;;;;4.90;2.35;;;24.50;45.90;;;;;;4153199;28;20532;-46
2020/12/11 10:28:50;;;;;;;5.37;2.03;;;24.50;45.90;;;;;;4148440;28;20033;-45
2020/12/11 10:30:52;;;;;;;4.05;1.92;;;24.50;46.00;;;;;;4150994;28;20454;-47
2020/12/11 10:32:55;;;;;;;5.35;2.08;;;24.50;46.00;;;;;;4154668;28;20391;-46
2020/12/11 10:34:57;;;;;;;;;;;24.50;46.00;;;;;;4149881;28;20523;-45
2020/12/11 10:36:59;;;;;;;5.65;2.35;;;24.50;46.10;;;;;;4148008;28;20129;-45
2020/12/11 10:39:01;;;;;;;6.95;2.00;;;24.50;46.10;;;;;;4151264;28;20061;-49
2020/12/11 10:41:03;;;;;;;2.95;1.65;;;24.50;46.10;;;;;;4148021;28;20039;-48
2020/12/11 10:43:05;;;;;;;3.47;1.70;;;24.40;46.00;;;;;;4147055;28;20458;-47
2020/12/11 10:45:08;;;;;;;4.10;1.83;;;24.40;46.10;;;;;;4148840;28;20410;-49
2020/12/11 10:47:10;;;;;;;3.72;1.90;;;24.40;46.10;;;;;;4149843;28;20029;-45
2020/12/11 10:49:12;;;;;;;4.43;1.92;;;24.40;46.10;;;;;;4152903;28;20041;-50
2020/12/11 10:51:15;;;;;;;3.50;1.77;;;24.40;46.10;;;;;;4149027;28;20029;-47
2020/12/11 10:53:17;;;;;;;4.40;1.88;;;24.40;46.20;;;;;;4148401;28;20607;-48
2020/12/11 10:55:19;;;;;;;4.43;1.70;;;24.40;46.20;;;;;;4149087;28;20044;-48
2020/12/11 10:57:21;;;;;;;3.95;1.63;;;24.40;46.30;;;;;;4152365;28;20174;-48
2020/12/11 10:59:24;;;;;;;4.43;1.77;;;24.30;46.20;;;;;;4149352;28;20501;-49
2020/12/11 11:01:26;;;;;;;3.55;1.50;;;24.40;46.20;;;;;;4149029;28;20501;-51